Time;durP1;ratioP1;P1;durP2;ratioP2;P2;SDS_P1;SDS_P2;PMS_P1;PMS_P2;Temp;Humidity;BMP_temperature;BMP_pressure;BME280_temperature;BME280_humidity;BME280_pressure;Samples;Min_cycle;Max_cycle;Signal;HPM_P1;HPM_P2
2023/03/29 00:01:51;;;;;;;15.13;6.38;;;2.90;99.90;;;;;;4993793;28;20029;-77
2023/03/29 00:04:20;;;;;;;14.07;5.90;;;2.90;99.90;;;;;;4993673;28;20030;-78
2023/03/29 00:06:47;;;;;;;15.68;6.97;;;3.00;99.90;;;;;;4993301;28;20025;-77
2023/03/29 00:09:17;;;;;;;13.65;5.53;;;2.90;99.90;;;;;;4993133;28;20018;-77
2023/03/29 00:11:43;;;;;;;17.02;6.53;;;2.90;99.90;;;;;;4991891;28;20368;-77
2023/03/29 00:14:09;;;;;;;16.92;6.07;;;2.90;99.90;;;;;;4990781;28;20022;-77
2023/03/29 00:16:35;;;;;;;24.25;7.20;;;2.90;99.90;;;;;;4991794;28;20034;-78
2023/03/29 00:19:01;;;;;;;13.45;5.80;;;2.90;99.90;;;;;;4991556;28;20416;-78
2023/03/29 00:21:27;;;;;;;16.25;5.28;;;2.90;99.90;;;;;;4992051;28;20734;-77
2023/03/29 00:23:52;;;;;;;16.35;5.82;;;2.80;99.90;;;;;;4994994;28;20026;-77
2023/03/29 00:26:18;;;;;;;12.98;5.65;;;2.80;99.90;;;;;;4997617;28;20065;-77
2023/03/29 00:28:44;;;;;;;11.50;4.85;;;2.80;99.90;;;;;;4997314;28;20030;-78
2023/03/29 00:31:15;;;;;;;12.77;5.38;;;2.80;99.90;;;;;;4997761;28;20034;-78
2023/03/29 00:33:42;;;;;;;13.02;5.53;;;2.80;99.90;;;;;;4997930;28;20487;-78
2023/03/29 00:36:11;;;;;;;13.45;5.95;;;2.80;99.90;;;;;;4996787;28;20387;-78
2023/03/29 00:38:37;;;;;;;15.15;5.82;;;2.80;99.90;;;;;;4997585;28;20022;-78
2023/03/29 00:41:05;;;;;;;16.30;6.85;;;2.80;99.90;;;;;;4997406;28;20041;-78
2023/03/29 00:43:57;;;;;;;13.95;5.75;;;2.70;99.90;;;;;;4997238;28;20022;-78
2023/03/29 00:46:24;;;;;;;13.32;5.18;;;2.70;99.90;;;;;;4997486;28;20026;-77
2023/03/29 00:48:53;;;;;;;14.30;5.53;;;2.70;99.90;;;;;;4996767;28;20037;-77
2023/03/29 00:51:21;;;;;;;12.35;5.20;;;2.60;99.90;;;;;;4996454;28;20073;-78
2023/03/29 00:53:50;;;;;;;16.65;5.32;;;2.60;99.90;;;;;;4997197;28;20033;-77
2023/03/29 00:56:23;;;;;;;10.73;4.60;;;2.60;99.90;;;;;;4995489;28;20072;-77
2023/03/29 00:59:11;;;;;;;13.73;5.10;;;2.60;99.90;;;;;;4997446;28;20026;-77
2023/03/29 01:01:45;;;;;;;12.75;4.55;;;2.60;99.90;;;;;;4996009;28;20069;-77
2023/03/29 01:04:21;;;;;;;10.75;4.28;;;2.60;99.90;;;;;;4996835;28;20018;-78
2023/03/29 01:06:55;;;;;;;11.60;6.05;;;2.60;99.90;;;;;;4995902;28;20336;-77
2023/03/29 01:09:25;;;;;;;12.52;4.68;;;2.50;99.90;;;;;;4995966;28;20117;-77
2023/03/29 01:11:55;;;;;;;17.15;4.88;;;2.50;99.90;;;;;;4996529;28;20465;-78
2023/03/29 01:14:33;;;;;;;14.13;4.50;;;2.40;99.90;;;;;;4996703;28;20034;-77
2023/03/29 01:16:59;;;;;;;13.07;4.40;;;2.30;99.90;;;;;;4996815;28;20026;-77
2023/03/29 01:19:30;;;;;;;11.90;4.80;;;2.30;99.90;;;;;;4996707;28;20027;-78
2023/03/29 01:22:06;;;;;;;;;;;2.30;99.90;;;;;;4997436;28;20046;-77
2023/03/29 01:24:36;;;;;;;14.60;5.40;;;2.20;99.90;;;;;;4995542;28;19906;-77
2023/03/29 01:27:12;;;;;;;16.98;6.30;;;2.20;99.90;;;;;;4997021;28;20449;-77
2023/03/29 01:29:41;;;;;;;12.95;5.75;;;2.10;99.90;;;;;;4996851;28;20038;-77
2023/03/29 06:59:30;;;;;;;35.00;10.93;;;6.90;71.40;;;;;;5070930;28;20441;-78
2023/03/29 07:01:55;;;;;;;27.23;9.25;;;6.80;72.00;;;;;;5070024;28;20028;-78
2023/03/29 07:04:24;;;;;;;13.90;4.53;;;7.00;71.40;;;;;;5070895;28;20025;-79
2023/03/29 07:07:00;;;;;;;13.65;5.20;;;7.10;71.80;;;;;;5069589;28;20033;-79
2023/03/29 07:09:29;;;;;;;15.60;5.80;;;7.00;69.70;;;;;;5070900;28;20028;-79
2023/03/29 07:11:59;;;;;;;11.30;4.07;;;7.30;70.00;;;;;;5069784;28;20024;-79
2023/03/29 07:14:27;;;;;;;18.45;5.55;;;7.30;68.30;;;;;;5070345;28;20090;-79
2023/03/29 07:16:59;;;;;;;19.40;5.90;;;7.40;67.70;;;;;;5070674;28;20072;-79
2023/03/29 07:19:27;;;;;;;15.73;5.28;;;7.50;66.80;;;;;;5070648;28;20120;-79
2023/03/29 07:21:53;;;;;;;23.55;9.55;;;7.80;67.60;;;;;;5070538;28;20025;-79
2023/03/29 07:24:20;;;;;;;31.30;11.10;;;8.00;68.20;;;;;;5070369;28;20404;-78
2023/03/29 07:36:53;;;;;;;13.38;6.35;;;8.80;60.40;;;;;;5070352;28;20028;-79
2023/03/29 07:39:19;;;;;;;16.65;6.72;;;8.80;58.90;;;;;;5070121;28;20032;-78
2023/03/29 07:41:44;;;;;;;15.38;4.80;;;9.10;59.20;;;;;;5069102;28;20036;-79
2023/03/29 07:44:10;;;;;;;10.18;4.35;;;9.30;58.10;;;;;;5070165;28;20020;-79
2023/03/29 07:46:36;;;;;;;10.55;4.13;;;9.30;55.40;;;;;;5069992;28;20021;-77
2023/03/29 07:49:03;;;;;;;13.02;5.82;;;9.30;55.10;;;;;;5069957;28;20039;-77
2023/03/29 07:51:29;;;;;;;11.77;4.53;;;9.20;55.70;;;;;;5070053;28;20025;-78
2023/03/29 07:53:55;;;;;;;14.32;9.18;;;9.30;56.70;;;;;;5069110;28;20047;-78
2023/03/29 07:56:20;;;;;;;12.35;6.55;;;9.40;53.90;;;;;;5070401;28;20443;-78
2023/03/29 07:58:46;;;;;;;10.30;6.20;;;9.50;54.50;;;;;;5067622;28;20055;-79
2023/03/29 08:01:14;;;;;;;8.88;3.63;;;9.70;54.00;;;;;;5069500;28;20021;-79
2023/03/29 08:03:40;;;;;;;7.00;3.95;;;9.70;52.40;;;;;;5067566;28;20028;-79
2023/03/29 08:06:07;;;;;;;8.43;7.32;;;10.00;50.80;;;;;;5067938;28;20024;-79
2023/03/29 08:08:33;;;;;;;9.07;4.90;;;10.00;50.10;;;;;;5068712;28;20021;-79
2023/03/29 08:10:59;;;;;;;8.30;3.80;;;10.20;50.10;;;;;;5055924;28;20056;-79
2023/03/29 08:13:25;;;;;;;9.40;4.20;;;10.60;48.30;;;;;;5054490;28;20467;-79
2023/03/29 08:15:50;;;;;;;10.68;5.00;;;10.80;46.40;;;;;;5057083;28;20021;-80
2023/03/29 08:18:16;;;;;;;38.30;17.80;;;10.80;45.70;;;;;;5056264;28;20116;-83
2023/03/29 08:20:42;;;;;;;59.97;24.67;;;11.10;47.90;;;;;;5056165;28;20076;-79
2023/03/29 08:23:08;;;;;;;19.83;9.35;;;10.70;45.90;;;;;;5055141;28;20028;-79
2023/03/29 08:25:35;;;;;;;41.15;16.90;;;11.00;43.50;;;;;;5055075;28;20056;-79
2023/03/29 08:28:01;;;;;;;13.38;6.75;;;11.30;44.20;;;;;;5055990;28;20108;-79
2023/03/29 08:30:26;;;;;;;55.67;20.40;;;11.30;42.20;;;;;;5054999;28;20489;-78
2023/03/29 08:32:53;;;;;;;20.27;7.05;;;11.30;42.70;;;;;;5056364;28;20017;-79
2023/03/29 08:35:19;;;;;;;9.85;3.97;;;11.10;38.10;;;;;;5055830;28;20074;-80
2023/03/29 08:37:45;;;;;;;48.97;21.05;;;11.20;39.10;;;;;;5056234;28;20028;-80
2023/03/29 08:40:20;;;;;;;40.20;18.35;;;11.60;42.10;;;;;;5054428;28;20037;-80
2023/03/29 08:42:57;;;;;;;10.13;3.88;;;11.80;41.00;;;;;;5054997;28;20032;-80
2023/03/29 08:45:48;;;;;;;7.10;4.50;;;11.80;39.60;;;;;;5056137;28;20039;-80
2023/03/29 08:49:00;;;;;;;44.03;23.20;;;11.90;42.40;;;;;;5054364;28;20359;-79
2023/03/29 08:51:28;;;;;;;14.40;5.80;;;11.80;41.50;;;;;;5051846;28;20075;-81
2023/03/29 08:54:12;;;;;;;15.00;5.05;;;11.70;39.50;;;;;;5054398;28;20017;-80
2023/03/29 08:56:39;;;;;;;7.07;3.33;;;11.90;39.10;;;;;;5055476;28;20036;-81
2023/03/29 08:59:13;;;;;;;8.02;3.17;;;12.10;41.20;;;;;;5055729;28;20404;-80
2023/03/29 09:01:39;;;;;;;29.40;10.98;;;12.40;38.90;;;;;;5054928;28;20447;-80
2023/03/29 09:04:24;;;;;;;8.77;3.72;;;12.30;38.50;;;;;;5053708;28;20048;-80
2023/03/29 09:06:51;;;;;;;9.35;3.33;;;12.50;37.60;;;;;;5053954;28;20025;-80
2023/03/29 09:09:21;;;;;;;8.10;2.95;;;12.70;38.30;;;;;;5053820;28;20040;-81
2023/03/29 09:12:02;;;;;;;8.35;2.80;;;13.00;37.20;;;;;;5053713;28;20371;-82
2023/03/29 09:14:50;;;;;;;9.10;3.90;;;13.30;37.00;;;;;;5053964;28;20462;-80
2023/03/29 09:17:16;;;;;;;6.28;2.10;;;13.20;38.00;;;;;;5053580;28;20142;-81
2023/03/29 09:20:03;;;;;;;6.95;2.17;;;13.50;37.80;;;;;;5055395;28;20115;-81
2023/03/29 09:22:38;;;;;;;8.60;3.20;;;13.30;34.80;;;;;;5054329;28;20144;-79
2023/03/29 09:25:22;;;;;;;5.72;2.13;;;12.90;36.10;;;;;;5054174;28;20086;-82
2023/03/29 09:28:04;;;;;;;11.73;6.47;;;12.70;36.90;;;;;;5055389;28;20017;-81
2023/03/29 09:30:41;;;;;;;7.57;3.58;;;12.90;37.60;;;;;;5053671;28;20059;-82
2023/03/29 09:33:22;;;;;;;11.98;4.38;;;12.70;36.10;;;;;;5053887;28;20452;-80
2023/03/29 09:35:58;;;;;;;5.82;2.33;;;12.60;35.80;;;;;;5054818;28;20075;-81
2023/03/29 09:38:24;;;;;;;5.95;2.42;;;12.70;35.70;;;;;;5053448;28;20041;-80
2023/03/29 09:40:57;;;;;;;7.97;3.55;;;12.60;36.60;;;;;;5054707;28;20357;-82
2023/03/29 09:43:32;;;;;;;5.90;2.50;;;12.90;36.70;;;;;;5054644;28;20404;-80
2023/03/29 09:46:01;;;;;;;7.28;3.83;;;12.70;34.70;;;;;;5053767;28;20017;-81
2023/03/29 09:48:30;;;;;;;31.10;15.70;;;12.40;35.10;;;;;;5054777;28;20067;-83
2023/03/29 09:50:56;;;;;;;10.07;4.57;;;12.70;37.20;;;;;;5053623;28;20057;-80
2023/03/29 09:53:23;;;;;;;9.90;4.88;;;12.80;36.60;;;;;;5054771;28;20021;-80
2023/03/29 09:55:50;;;;;;;13.00;6.25;;;12.80;37.10;;;;;;5053509;28;20094;-80
2023/03/29 09:58:24;;;;;;;8.93;2.65;;;13.20;37.10;;;;;;5052853;28;20044;-80
2023/03/29 10:00:50;;;;;;;10.65;4.13;;;13.70;34.90;;;;;;5054416;28;20025;-80
2023/03/29 10:03:26;;;;;;;6.25;2.65;;;14.20;37.40;;;;;;5054583;28;20048;-80
2023/03/29 10:05:54;;;;;;;3.67;1.88;;;14.00;33.50;;;;;;5054374;28;20370;-79
2023/03/29 10:08:30;;;;;;;9.88;3.03;;;13.20;33.80;;;;;;5053151;28;20029;-80
2023/03/29 10:10:57;;;;;;;6.47;2.30;;;13.50;33.60;;;;;;5054528;28;20436;-81
2023/03/29 10:13:35;;;;;;;20.85;9.65;;;13.40;34.80;;;;;;5054027;28;20024;-81
2023/03/29 10:16:17;;;;;;;17.52;9.00;;;13.30;35.70;;;;;;5053104;28;20025;-82
2023/03/29 10:18:43;;;;;;;14.30;5.77;;;13.60;37.00;;;;;;5053063;28;20061;-80
2023/03/29 10:21:16;;;;;;;9.45;5.30;;;13.70;36.20;;;;;;5054118;28;20665;-83
2023/03/29 10:23:42;;;;;;;5.57;2.92;;;13.30;34.90;;;;;;5054372;28;20017;-80
2023/03/29 10:26:37;;;;;;;6.35;3.10;;;13.90;34.70;;;;;;5053886;28;20013;-80
2023/03/29 10:29:05;;;;;;;6.55;2.67;;;13.60;34.20;;;;;;5050941;28;20055;-82
2023/03/29 10:31:32;;;;;;;6.75;2.42;;;13.80;34.20;;;;;;5054099;28;20129;-83
2023/03/29 10:34:03;;;;;;;6.72;2.60;;;13.70;35.00;;;;;;5053500;28;20071;-81
2023/03/29 10:36:29;;;;;;;5.45;2.60;;;13.60;33.90;;;;;;5052987;28;20074;-81
2023/03/29 10:39:00;;;;;;;12.70;5.32;;;13.80;34.40;;;;;;5052700;28;20029;-80
2023/03/29 10:41:28;;;;;;;12.55;4.70;;;14.30;36.50;;;;;;5052395;28;20021;-81
2023/03/29 10:43:54;;;;;;;8.82;2.78;;;14.70;36.90;;;;;;5054225;28;20021;-79
2023/03/29 10:46:30;;;;;;;9.60;4.00;;;14.50;34.10;;;;;;5053514;28;20037;-81
2023/03/29 10:49:04;;;;;;;18.60;9.13;;;14.80;34.90;;;;;;5052863;28;20344;-80
2023/03/29 10:51:33;;;;;;;5.90;2.80;;;15.10;34.30;;;;;;5052630;28;20033;-80
2023/03/29 10:54:00;;;;;;;6.80;2.40;;;15.30;32.00;;;;;;5053534;28;20467;-80
2023/03/29 10:56:44;;;;;;;9.80;4.38;;;14.90;32.30;;;;;;5054121;28;20448;-80
2023/03/29 10:59:21;;;;;;;15.10;8.25;;;14.50;32.90;;;;;;5052356;28;20056;-79
2023/03/29 11:02:06;;;;;;;11.68;4.38;;;14.80;36.70;;;;;;5053572;28;20021;-81
2023/03/29 11:04:51;;;;;;;9.18;4.75;;;15.00;32.60;;;;;;5052404;28;20028;-81
2023/03/29 11:07:32;;;;;;;10.00;5.50;;;15.10;32.40;;;;;;5052130;28;20020;-81
2023/03/29 11:10:16;;;;;;;7.82;4.60;;;14.80;32.30;;;;;;5053407;28;20025;-80
2023/03/29 11:13:08;;;;;;;8.23;4.43;;;15.10;31.10;;;;;;5052500;28;20478;-81
2023/03/29 11:15:49;;;;;;;9.55;5.05;;;15.50;32.30;;;;;;5053373;28;20063;-82
2023/03/29 11:18:36;;;;;;;8.50;4.07;;;15.50;33.10;;;;;;5052484;28;20029;-81
2023/03/29 11:21:18;;;;;;;5.95;2.53;;;15.90;31.10;;;;;;5053982;28;20053;-82
2023/03/29 11:23:58;;;;;;;14.77;3.17;;;16.30;30.80;;;;;;5052444;28;20455;-79
2023/03/29 11:26:33;;;;;;;6.75;3.40;;;15.70;31.30;;;;;;5052020;28;20025;-78
2023/03/29 11:29:09;;;;;;;7.82;2.92;;;15.60;32.80;;;;;;5052883;28;20405;-81
2023/03/29 11:32:16;;;;;;;13.65;4.60;;;15.40;31.90;;;;;;5053752;28;20104;-80
2023/03/29 11:35:04;;;;;;;8.68;3.83;;;14.60;30.70;;;;;;5037210;28;20025;-80
2023/03/29 11:38:07;;;;;;;11.38;5.60;;;15.40;31.20;;;;;;5051813;28;20486;-80
2023/03/29 11:41:03;;;;;;;9.07;3.47;;;16.30;30.00;;;;;;5050844;28;20029;-79
2023/03/29 11:43:35;;;;;;;8.18;3.45;;;16.10;30.30;;;;;;5053241;28;20474;-80
2023/03/29 11:46:15;;;;;;;8.00;2.53;;;15.50;31.30;;;;;;5055373;28;20350;-80
2023/03/29 11:49:05;;;;;;;5.43;1.98;;;14.80;30.70;;;;;;5055907;28;20025;-82
2023/03/29 11:51:36;;;;;;;7.05;2.85;;;14.40;33.90;;;;;;5055524;28;20028;-79
2023/03/29 11:54:12;;;;;;;7.17;3.60;;;14.00;32.50;;;;;;5055947;28;20083;-81
2023/03/29 11:56:44;;;;;;;7.43;2.53;;;14.00;31.40;;;;;;5055489;28;20320;-81
2023/03/29 11:59:16;;;;;;;;;;;13.70;32.80;;;;;;5056274;28;20064;-79
2023/03/29 12:01:51;;;;;;;5.57;1.98;;;13.50;33.40;;;;;;5055884;28;19900;-81
2023/03/29 12:04:32;;;;;;;8.00;2.20;;;13.60;32.30;;;;;;5055403;28;20025;-82
2023/03/29 12:07:07;;;;;;;8.13;3.17;;;14.20;34.80;;;;;;5056954;28;20027;-79
2023/03/29 12:09:57;;;;;;;7.45;2.72;;;14.80;33.00;;;;;;5055371;28;20612;-81
2023/03/29 12:12:34;;;;;;;9.73;4.18;;;15.20;31.00;;;;;;5056280;28;20028;-79
2023/03/29 12:15:06;;;;;;;7.22;2.83;;;15.90;31.20;;;;;;5056757;28;20075;-80
2023/03/29 12:17:43;;;;;;;6.40;2.63;;;15.60;29.60;;;;;;5056297;28;20451;-81
2023/03/29 12:20:27;;;;;;;10.90;4.07;;;15.60;32.00;;;;;;5056665;28;20028;-81
2023/03/29 12:22:53;;;;;;;7.00;3.55;;;15.30;30.10;;;;;;5055668;28;20025;-80
2023/03/29 12:26:01;;;;;;;7.45;2.40;;;15.30;32.20;;;;;;5054890;28;20017;-82
2023/03/29 12:28:39;;;;;;;8.95;4.47;;;15.20;29.80;;;;;;5035211;28;20036;-82
2023/03/29 12:31:38;;;;;;;8.52;3.67;;;15.30;30.50;;;;;;5056343;28;20053;-81
2023/03/29 12:34:41;;;;;;;7.63;3.58;;;16.00;30.40;;;;;;5055028;28;20017;-83
2023/03/29 12:37:16;;;;;;;11.43;5.05;;;15.90;29.40;;;;;;5055568;28;20017;-81
2023/03/29 12:39:42;;;;;;;17.77;5.65;;;16.80;32.60;;;;;;5054594;28;20032;-81
2023/03/29 12:42:20;;;;;;;13.68;5.20;;;17.30;30.00;;;;;;5054042;28;20020;-82
2023/03/29 12:45:00;;;;;;;15.98;5.53;;;17.10;29.50;;;;;;5055020;28;20043;-80
2023/03/29 12:47:32;;;;;;;17.25;6.00;;;17.20;29.20;;;;;;5053738;28;20365;-80
2023/03/29 12:50:00;;;;;;;23.55;8.55;;;16.40;30.10;;;;;;5048279;28;20025;-82
2023/03/29 12:52:28;;;;;;;10.63;3.80;;;16.20;30.00;;;;;;5063987;28;20013;-80
2023/03/29 12:55:15;;;;;;;11.95;4.43;;;16.20;29.30;;;;;;5059942;28;20056;-80
2023/03/29 12:58:01;;;;;;;18.88;7.18;;;17.00;29.60;;;;;;5074602;28;20072;-81
2023/03/29 13:00:43;;;;;;;9.20;3.72;;;17.40;29.60;;;;;;5059380;28;20074;-82
2023/03/29 13:03:50;;;;;;;11.38;4.80;;;17.30;29.60;;;;;;5059591;28;20021;-83
2023/03/29 13:06:47;;;;;;;8.10;3.33;;;17.30;30.00;;;;;;5059425;28;20048;-83
2023/03/29 13:09:35;;;;;;;12.20;3.20;;;16.70;29.00;;;;;;5062929;28;20021;-81
2023/03/29 13:12:03;;;;;;;8.27;4.15;;;15.90;28.60;;;;;;5061577;28;20028;-84
2023/03/29 13:14:34;;;;;;;8.85;3.60;;;15.50;30.50;;;;;;5060365;28;20481;-82
2023/03/29 13:17:01;;;;;;;9.38;3.90;;;15.10;32.60;;;;;;5083599;28;20079;-82
2023/03/29 13:19:34;;;;;;;5.97;2.53;;;14.70;32.50;;;;;;5055718;28;20029;-81
2023/03/29 13:22:30;;;;;;;25.05;8.63;;;14.20;32.00;;;;;;5071887;28;20021;-81
2023/03/29 13:25:22;;;;;;;12.70;4.95;;;14.30;32.60;;;;;;5025618;28;20033;-82
2023/03/29 13:28:04;;;;;;;10.95;4.32;;;14.20;33.80;;;;;;4996240;28;20473;-84
2023/03/29 13:30:50;;;;;;;9.15;3.97;;;14.20;32.90;;;;;;5013410;28;20045;-84
2023/03/29 13:33:47;;;;;;;7.95;3.50;;;14.30;34.50;;;;;;4996724;28;20073;-82
2023/03/29 13:36:13;;;;;;;6.47;2.95;;;14.10;32.90;;;;;;4981198;28;20034;-82
2023/03/29 13:38:50;;;;;;;14.52;6.35;;;14.30;35.30;;;;;;5016400;28;20036;-84
2023/03/29 13:41:37;;;;;;;11.00;3.78;;;14.30;34.10;;;;;;5032286;28;20116;-84
2023/03/29 13:44:16;;;;;;;13.10;5.88;;;14.10;32.10;;;;;;5013579;28;20057;-83
2023/03/29 13:46:43;;;;;;;23.35;10.02;;;13.80;32.30;;;;;;5013067;28;20022;-83
2023/03/29 13:49:23;;;;;;;14.77;6.53;;;13.70;32.00;;;;;;4996095;28;20041;-84
2023/03/29 13:52:22;;;;;;;18.13;6.88;;;13.80;31.30;;;;;;4996499;28;20065;-84
2023/03/29 13:55:03;;;;;;;8.73;3.83;;;13.70;31.40;;;;;;4996321;28;20030;-84
2023/03/29 13:57:38;;;;;;;11.98;5.10;;;13.80;31.20;;;;;;5012218;28;20396;-82
2023/03/29 14:00:16;;;;;;;13.15;5.38;;;13.90;31.70;;;;;;5012956;28;20022;-86
2023/03/29 14:03:04;;;;;;;28.05;10.57;;;14.20;33.00;;;;;;5055285;28;20032;-84
2023/03/29 14:05:36;;;;;;;9.55;2.95;;;14.40;32.70;;;;;;5073575;28;20411;-83
2023/03/29 14:08:29;;;;;;;8.70;3.60;;;14.10;30.90;;;;;;5058549;28;20025;-82
2023/03/29 14:10:58;;;;;;;17.88;6.13;;;14.30;31.40;;;;;;5052282;28;20101;-83
2023/03/29 14:13:26;;;;;;;23.73;8.43;;;14.30;31.70;;;;;;5054379;28;20021;-80
2023/03/29 14:15:51;;;;;;;18.70;7.07;;;14.20;31.00;;;;;;5054067;28;20363;-82
2023/03/29 14:18:24;;;;;;;15.82;7.07;;;14.20;31.60;;;;;;5053983;28;20031;-83
2023/03/29 14:20:53;;;;;;;12.90;4.57;;;14.10;32.20;;;;;;5053238;28;20159;-81
2023/03/29 14:23:24;;;;;;;11.05;4.78;;;13.90;32.30;;;;;;5053982;28;20024;-82
2023/03/29 14:25:50;;;;;;;19.08;6.03;;;13.80;33.30;;;;;;5054276;28;20116;-82
2023/03/29 14:28:25;;;;;;;8.45;3.08;;;13.70;34.10;;;;;;5052835;28;20482;-83
2023/03/29 14:30:52;;;;;;;13.15;5.32;;;13.70;32.20;;;;;;5052405;28;20028;-83
2023/03/29 14:33:31;;;;;;;18.95;7.38;;;13.80;33.00;;;;;;5053082;28;20394;-82
2023/03/29 14:35:59;;;;;;;17.25;6.80;;;13.80;33.40;;;;;;5052171;28;20025;-82
2023/03/29 14:38:26;;;;;;;11.63;4.60;;;13.70;32.60;;;;;;5050563;28;20039;-80
2023/03/29 14:40:53;;;;;;;44.15;21.58;;;13.60;32.10;;;;;;5054274;28;20025;-81
2023/03/29 14:43:23;;;;;;;22.65;9.93;;;13.50;32.80;;;;;;5053000;28;20025;-80
2023/03/29 14:45:49;;;;;;;17.42;7.93;;;13.50;34.10;;;;;;5053615;28;20054;-83
2023/03/29 14:48:15;;;;;;;7.72;3.17;;;13.50;33.40;;;;;;5051926;28;20440;-82
2023/03/29 14:50:43;;;;;;;7.85;3.53;;;13.60;33.20;;;;;;5052181;28;20455;-83
2023/03/29 14:53:19;;;;;;;11.05;4.97;;;13.50;33.40;;;;;;5051842;28;20372;-82
2023/03/29 14:55:50;;;;;;;42.03;15.65;;;13.40;31.50;;;;;;5047449;28;20025;-81
2023/03/29 14:58:27;;;;;;;19.55;8.27;;;13.50;33.80;;;;;;5051860;28;20049;-82
2023/03/29 15:00:53;;;;;;;34.25;13.13;;;13.50;32.80;;;;;;5052585;28;20033;-83
2023/03/29 15:03:25;;;;;;;16.88;7.53;;;13.50;33.60;;;;;;5053993;28;20100;-79
2023/03/29 15:06:00;;;;;;;27.70;11.25;;;13.40;34.00;;;;;;5052197;28;20460;-82
2023/03/29 15:08:33;;;;;;;97.53;35.20;;;13.40;33.60;;;;;;5052394;28;20032;-86
2023/03/29 15:11:00;;;;;;;10.63;5.65;;;13.60;34.60;;;;;;5052572;28;20021;-83
2023/03/29 15:13:27;;;;;;;8.15;4.00;;;13.50;34.30;;;;;;5052016;28;20017;-81
2023/03/29 15:15:59;;;;;;;76.43;26.15;;;13.70;33.60;;;;;;5052448;28;20075;-81
2023/03/29 15:18:38;;;;;;;15.93;6.30;;;13.90;34.20;;;;;;5053966;28;20549;-82
2023/03/29 15:21:06;;;;;;;135.25;45.75;;;14.00;32.30;;;;;;5055611;28;20459;-81
2023/03/29 15:23:41;;;;;;;180.82;67.53;;;14.00;32.00;;;;;;5056325;28;20372;-79
2023/03/29 15:26:11;;;;;;;80.55;31.15;;;14.10;32.20;;;;;;5057088;28;20049;-80
2023/03/29 15:28:46;;;;;;;195.77;72.15;;;14.10;33.50;;;;;;5057793;28;20025;-82
2023/03/29 15:31:15;;;;;;;39.40;16.63;;;14.00;32.60;;;;;;5056313;28;20091;-83
2023/03/29 15:33:41;;;;;;;23.00;4.80;;;13.80;31.60;;;;;;5055885;28;20021;-82
2023/03/29 15:36:08;;;;;;;19.55;8.73;;;13.60;31.50;;;;;;5056116;28;20447;-80
2023/03/29 15:38:36;;;;;;;40.08;16.55;;;13.30;32.30;;;;;;5056378;28;20025;-82
2023/03/29 15:41:02;;;;;;;34.97;15.10;;;13.20;32.20;;;;;;5055180;28;20028;-82
2023/03/29 15:43:29;;;;;;;59.35;26.05;;;13.10;32.60;;;;;;5055953;28;20036;-81
2023/03/29 15:45:55;;;;;;;35.03;17.17;;;13.00;32.90;;;;;;5056040;28;20021;-80
2023/03/29 15:48:28;;;;;;;27.52;12.10;;;12.60;33.20;;;;;;5055206;28;20064;-81
2023/03/29 15:50:54;;;;;;;13.02;6.60;;;12.70;34.10;;;;;;5057391;28;20052;-82
2023/03/29 15:53:22;;;;;;;15.00;4.70;;;12.60;33.80;;;;;;5055752;28;20028;-81
2023/03/29 15:55:51;;;;;;;12.80;5.63;;;12.60;35.20;;;;;;5056447;28;20021;-81
2023/03/29 15:58:26;;;;;;;12.57;6.03;;;12.60;35.30;;;;;;5055482;28;20056;-84
2023/03/29 16:01:01;;;;;;;24.05;11.32;;;12.60;32.40;;;;;;5055872;28;20020;-81
2023/03/29 16:03:27;;;;;;;19.52;9.75;;;12.50;34.00;;;;;;5055372;28;20020;-81
2023/03/29 16:05:55;;;;;;;18.60;8.48;;;12.50;32.60;;;;;;5057117;28;20025;-81
2023/03/29 16:08:21;;;;;;;46.58;23.67;;;12.50;34.70;;;;;;5055093;28;20029;-82
2023/03/29 16:10:48;;;;;;;29.77;12.75;;;12.30;36.60;;;;;;5055496;28;20028;-79
2023/03/29 16:13:14;;;;;;;31.17;20.20;;;12.30;37.20;;;;;;5055367;28;20025;-80
2023/03/29 16:15:41;;;;;;;24.92;10.02;;;12.20;37.00;;;;;;5055088;28;20086;-81
2023/03/29 16:18:08;;;;;;;28.38;14.32;;;12.10;37.10;;;;;;5056384;28;20021;-84
2023/03/29 16:20:34;;;;;;;46.13;17.60;;;12.10;38.50;;;;;;5056564;28;20048;-83
2023/03/29 16:23:08;;;;;;;26.50;10.43;;;12.00;37.60;;;;;;5054890;28;20363;-82
2023/03/29 16:25:38;;;;;;;33.28;14.05;;;12.00;37.70;;;;;;5057559;28;20044;-81
2023/03/29 16:28:06;;;;;;;38.83;16.83;;;12.00;37.50;;;;;;5064446;28;20021;-83
2023/03/29 16:30:33;;;;;;;71.03;31.75;;;12.00;39.20;;;;;;5055588;28;20052;-81
2023/03/29 16:32:59;;;;;;;115.13;61.92;;;12.00;38.30;;;;;;5072698;28;20077;-82
2023/03/29 16:35:31;;;;;;;58.65;27.20;;;12.00;38.60;;;;;;5075049;28;20070;-81
2023/03/29 16:37:57;;;;;;;59.47;26.77;;;11.90;38.20;;;;;;5074891;28;20020;-80
2023/03/29 16:40:23;;;;;;;49.88;21.67;;;11.90;39.60;;;;;;5075070;28;20029;-83
2023/03/29 16:42:54;;;;;;;24.70;11.43;;;11.90;38.70;;;;;;5074726;28;20021;-82
2023/03/29 16:45:20;;;;;;;53.40;22.42;;;11.80;37.20;;;;;;5058890;28;20127;-82
2023/03/29 16:47:46;;;;;;;84.88;30.95;;;11.80;38.20;;;;;;5053382;28;20115;-83
2023/03/29 16:50:14;;;;;;;75.57;30.92;;;11.70;37.30;;;;;;5047171;28;20088;-82
2023/03/29 16:52:41;;;;;;;65.80;27.23;;;11.70;37.80;;;;;;5033830;28;20372;-83
2023/03/29 16:55:11;;;;;;;60.15;25.30;;;11.70;38.80;;;;;;5017050;28;20483;-85
2023/03/29 16:57:43;;;;;;;94.38;37.60;;;11.70;37.50;;;;;;5032994;28;20053;-83
2023/03/29 17:00:10;;;;;;;79.93;31.95;;;11.60;38.30;;;;;;5033639;28;20031;-80
2023/03/29 17:02:36;;;;;;;61.83;24.73;;;11.50;39.80;;;;;;5033468;28;20124;-83
2023/03/29 17:05:03;;;;;;;76.47;30.00;;;11.40;41.50;;;;;;5032931;28;20108;-82
2023/03/29 17:07:29;;;;;;;80.75;29.77;;;11.30;42.80;;;;;;5033264;28;20431;-80
2023/03/29 17:09:55;;;;;;;152.38;50.35;;;11.20;43.40;;;;;;5033439;28;20052;-83
2023/03/29 17:12:21;;;;;;;72.88;30.88;;;11.10;44.40;;;;;;5016271;28;20052;-83
2023/03/29 17:14:48;;;;;;;161.02;58.35;;;11.10;45.20;;;;;;5033500;28;20046;-80
2023/03/29 17:17:14;;;;;;;107.88;40.55;;;11.00;45.00;;;;;;5016630;28;20076;-81
2023/03/29 17:19:40;;;;;;;147.68;55.08;;;10.90;45.20;;;;;;5048728;28;20379;-79
2023/03/29 17:22:06;;;;;;;130.85;52.33;;;10.90;45.80;;;;;;5055216;28;20495;-81
2023/03/29 17:24:32;;;;;;;96.28;38.60;;;10.80;46.40;;;;;;5058134;28;20047;-81
2023/03/29 17:26:58;;;;;;;107.72;44.65;;;10.80;46.10;;;;;;5053623;28;20337;-82
2023/03/29 17:29:23;;;;;;;98.35;41.30;;;10.80;46.70;;;;;;5055207;28;20063;-83
2023/03/29 17:31:49;;;;;;;120.72;52.83;;;10.80;47.60;;;;;;5053931;28;20036;-82
2023/03/29 17:34:17;;;;;;;92.57;40.65;;;10.80;46.40;;;;;;5063838;28;20012;-81
2023/03/29 17:36:47;;;;;;;184.18;71.35;;;10.80;47.00;;;;;;5073921;28;20112;-78
2023/03/29 17:39:14;;;;;;;175.40;74.97;;;10.70;46.50;;;;;;5074669;28;20024;-79
2023/03/29 17:41:41;;;;;;;106.82;45.10;;;10.70;47.50;;;;;;5071270;28;20020;-81
2023/03/29 17:44:07;;;;;;;182.00;67.90;;;10.70;46.30;;;;;;5050774;28;20469;-80
2023/03/29 17:46:33;;;;;;;149.52;60.75;;;10.60;46.50;;;;;;5064843;28;20028;-82
2023/03/29 17:48:59;;;;;;;92.35;36.67;;;10.60;46.10;;;;;;5064870;28;20025;-81
2023/03/29 17:51:26;;;;;;;108.50;52.00;;;10.50;45.90;;;;;;5053311;28;20025;-82
2023/03/29 17:53:53;;;;;;;105.25;41.65;;;10.50;46.00;;;;;;5053257;28;20359;-81
2023/03/29 17:56:20;;;;;;;121.82;51.13;;;10.40;46.00;;;;;;5054730;28;20032;-81
2023/03/29 17:58:47;;;;;;;93.20;32.78;;;10.40;46.60;;;;;;5054425;28;20459;-81
2023/03/29 18:01:14;;;;;;;90.15;37.25;;;10.30;46.40;;;;;;5052852;28;20024;-81
2023/03/29 18:03:40;;;;;;;95.03;39.05;;;10.40;47.00;;;;;;5052371;28;20475;-82
2023/03/29 18:06:07;;;;;;;119.20;49.75;;;10.40;47.60;;;;;;5051727;28;20108;-83
2023/03/29 18:08:34;;;;;;;164.75;69.25;;;10.40;47.70;;;;;;5051240;28;20032;-81
2023/03/29 18:11:14;;;;;;;149.27;60.97;;;10.40;47.80;;;;;;5052249;28;20025;-82
2023/03/29 18:13:42;;;;;;;136.02;52.92;;;10.40;48.30;;;;;;5052495;28;20459;-85
2023/03/29 18:16:09;;;;;;;119.32;47.08;;;10.40;47.50;;;;;;5051744;28;20025;-82
2023/03/29 18:18:35;;;;;;;141.48;56.45;;;10.30;47.30;;;;;;5052271;28;20028;-85
2023/03/29 18:21:01;;;;;;;115.72;46.88;;;10.30;48.60;;;;;;5052762;28;20086;-80
2023/03/29 18:23:26;;;;;;;127.78;49.25;;;10.20;48.20;;;;;;5051488;28;20525;-84
2023/03/29 18:26:03;;;;;;;119.85;47.80;;;10.20;48.50;;;;;;5051865;28;20017;-83
2023/03/29 18:28:32;;;;;;;158.85;60.15;;;10.10;48.80;;;;;;5053411;28;20515;-82
2023/03/29 18:30:58;;;;;;;137.40;46.85;;;10.10;49.00;;;;;;5052591;28;20040;-83
2023/03/29 18:33:24;;;;;;;154.32;53.05;;;10.10;49.20;;;;;;5053706;28;20025;-82
2023/03/29 18:35:50;;;;;;;143.85;52.00;;;10.00;50.00;;;;;;5051826;28;20035;-82
2023/03/29 18:38:17;;;;;;;114.63;44.72;;;9.90;50.20;;;;;;5051799;28;20036;-81
2023/03/29 18:40:44;;;;;;;86.78;35.03;;;9.80;50.70;;;;;;5052783;28;20364;-81
2023/03/29 18:43:10;;;;;;;67.65;27.35;;;9.80;50.80;;;;;;5052239;28;20032;-81